Time;durP1;ratioP1;P1;durP2;ratioP2;P2;SDS_P1;SDS_P2;PMS_P1;PMS_P2;Temp;Humidity;BMP_temperature;BMP_pressure;BME280_temperature;BME280_humidity;BME280_pressure;Samples;Min_cycle;Max_cycle;Signal;HPM_P1;HPM_P2
2022/09/08 00:00:07;;;;;;;7.63;3.20;;;;;;;17.55;84.67;94766.97;5032325;28;20205;-62
2022/09/08 00:02:35;;;;;;;4.07;3.50;;;;;;;17.61;85.49;94755.22;5031690;28;20280;-63
2022/09/08 00:05:01;;;;;;;5.03;3.45;;;;;;;17.70;85.27;94768.81;5030864;28;20252;-62
2022/09/08 00:07:26;;;;;;;3.55;3.05;;;;;;;17.61;82.96;94791.22;5030316;28;20248;-62
2022/09/08 00:09:52;;;;;;;3.65;3.13;;;;;;;17.53;83.19;94799.75;5030667;28;20210;-62
2022/09/08 00:12:18;;;;;;;5.55;3.20;;;;;;;17.39;83.81;94786.81;5030419;28;20209;-62
2022/09/08 00:14:45;;;;;;;5.68;3.05;;;;;;;17.31;84.96;94774.78;5031836;28;20267;-62
2022/09/08 00:17:10;;;;;;;3.83;3.40;;;;;;;17.13;86.16;94761.34;5031624;28;20652;-60
2022/09/08 00:19:36;;;;;;;4.32;2.97;;;;;;;17.14;86.56;94759.59;5031705;28;20225;-63
2022/09/08 00:22:01;;;;;;;3.85;3.50;;;;;;;17.16;87.15;94767.94;5031669;28;20657;-60
2022/09/08 00:24:27;;;;;;;6.43;3.47;;;;;;;17.04;87.90;94753.84;5031614;28;20325;-63
2022/09/08 00:26:52;;;;;;;4.15;3.33;;;;;;;17.00;88.91;94750.84;5030191;28;20186;-62
2022/09/08 00:29:18;;;;;;;3.42;3.13;;;;;;;17.05;89.19;94756.25;5031537;28;20245;-63
2022/09/08 00:31:44;;;;;;;4.10;3.70;;;;;;;16.99;90.18;94753.56;5031367;28;20258;-62
2022/09/08 00:34:09;;;;;;;4.00;3.70;;;;;;;16.88;91.46;94736.75;5031301;28;20292;-62
2022/09/08 00:36:35;;;;;;;4.57;3.60;;;;;;;16.84;91.65;94740.63;5031311;28;20186;-62
2022/09/08 00:39:01;;;;;;;8.77;3.45;;;;;;;16.93;90.69;94761.94;5031123;28;20762;-62
2022/09/08 00:41:27;;;;;;;3.80;3.42;;;;;;;17.03;89.88;94771.03;5030290;28;20190;-62
2022/09/08 00:43:58;;;;;;;4.00;3.25;;;;;;;16.95;90.51;94765.91;5031106;28;20283;-62
2022/09/08 00:46:26;;;;;;;5.75;3.97;;;;;;;17.17;87.94;94798.59;5029984;28;20170;-63
2022/09/08 00:49:01;;;;;;;3.95;3.58;;;;;;;17.08;88.71;94788.53;5031094;28;20218;-63
2022/09/08 00:51:27;;;;;;;3.75;3.25;;;;;;;16.94;89.17;94784.06;5030760;28;20190;-62
2022/09/08 00:53:54;;;;;;;4.82;3.42;;;;;;;16.94;87.84;94795.16;5031129;28;20297;-61
2022/09/08 00:56:21;;;;;;;3.15;2.95;;;;;;;16.89;89.68;94791.47;5031267;28;20193;-59
2022/09/08 00:58:47;;;;;;;7.13;3.78;;;;;;;16.88;89.74;94787.31;5030825;28;20214;-60
2022/09/08 01:01:12;;;;;;;4.75;3.22;;;;;;;16.84;89.91;94775.75;5031054;28;20232;-61
2022/09/08 01:03:41;;;;;;;4.13;3.72;;;;;;;16.89;89.09;94794.84;5030964;28;20210;-59
2022/09/08 01:06:09;;;;;;;5.57;3.72;;;;;;;17.00;88.38;94806.53;5030913;28;20210;-62
2022/09/08 01:14:43;;;;;;;3.90;3.38;;;;;;;16.83;90.42;94769.03;5030909;28;20224;-62
2022/09/08 01:17:34;;;;;;;4.30;3.85;;;;;;;17.09;87.87;94818.41;5029850;28;20268;-60
2022/09/08 01:20:02;;;;;;;4.63;3.65;;;;;;;16.82;89.62;94777.69;5028187;28;20242;-61
2022/09/08 01:22:53;;;;;;;5.57;3.60;;;;;;;16.93;89.49;94782.50;5030947;28;20264;-61
2022/09/08 01:25:27;;;;;;;5.38;4.00;;;;;;;16.83;89.78;94774.16;5031167;28;20302;-62
2022/09/08 01:28:02;;;;;;;4.35;3.47;;;;;;;16.72;90.39;94758.13;5037948;22;20240;-62
2022/09/08 01:30:27;;;;;;;7.15;3.50;;;;;;;16.73;91.77;94758.94;5030847;28;20312;-61
2022/09/08 01:32:53;;;;;;;7.43;3.40;;;;;;;16.71;90.71;94773.69;5031133;28;20255;-62
2022/09/08 01:35:34;;;;;;;6.15;4.05;;;;;;;16.65;91.69;94757.19;5030482;28;20214;-63
2022/09/08 01:37:59;;;;;;;5.60;3.83;;;;;;;16.81;91.04;94778.66;5031245;28;20194;-63
2022/09/08 01:40:25;;;;;;;4.10;3.28;;;;;;;16.89;90.24;94794.84;5030456;28;20206;-63
2022/09/08 01:42:51;;;;;;;6.03;3.90;;;;;;;16.88;89.36;94808.66;5031183;28;20711;-62
2022/09/08 01:45:16;;;;;;;5.65;3.88;;;;;;;16.79;89.24;94799.34;5012940;28;20210;-62
2022/09/08 01:47:42;;;;;;;7.43;3.80;;;;;;;16.76;89.80;94803.06;5012696;28;20222;-62
2022/09/08 01:50:08;;;;;;;5.82;4.00;;;;;;;16.76;90.31;94794.56;5012839;28;20230;-60
2022/09/08 01:52:34;;;;;;;4.13;3.58;;;;;;;16.77;90.46;94786.69;5030406;28;20197;-62
2022/09/08 01:55:00;;;;;;;3.65;3.35;;;;;;;16.67;90.75;94785.25;5030582;28;20222;-62
2022/09/08 01:57:26;;;;;;;6.15;3.33;;;;;;;16.64;91.97;94768.41;5030601;28;20229;-61
2022/09/08 01:59:51;;;;;;;4.20;3.80;;;;;;;16.60;92.97;94764.56;5030108;28;20248;-61
2022/09/08 02:02:17;;;;;;;3.85;3.38;;;;;;;16.65;93.23;94762.31;5030587;28;20652;-61
2022/09/08 02:04:43;;;;;;;6.93;3.70;;;;;;;16.64;92.35;94757.34;5032998;28;20286;-61
2022/09/08 02:07:09;;;;;;;7.85;3.90;;;;;;;16.71;91.71;94771.94;5033968;28;20201;-62
2022/09/08 02:09:34;;;;;;;7.32;4.70;;;;;;;16.45;93.59;94734.56;5033689;28;20691;-60
2022/09/08 02:11:59;;;;;;;4.25;3.85;;;;;;;16.31;95.80;94712.94;5033700;28;20201;-59
2022/09/08 02:14:26;;;;;;;7.13;3.60;;;;;;;16.32;95.24;94729.16;5033875;28;20214;-63
2022/09/08 02:16:52;;;;;;;4.95;3.42;;;;;;;16.29;96.36;94720.00;5033573;28;20202;-63
2022/09/08 02:19:17;;;;;;;5.53;3.65;;;;;;;16.41;94.16;94744.38;5015688;28;20581;-62
2022/09/08 02:21:43;;;;;;;4.72;3.60;;;;;;;16.52;94.20;94750.97;5033555;28;20226;-64
2022/09/08 02:24:08;;;;;;;7.53;4.15;;;;;;;16.65;91.92;94777.72;5033421;28;20210;-64
2022/09/08 02:26:34;;;;;;;4.20;3.85;;;;;;;16.70;91.27;94785.72;5033819;28;20233;-62
2022/09/08 02:28:59;;;;;;;5.00;3.80;;;;;;;16.72;91.01;94781.22;5015353;28;20221;-61
2022/09/08 02:31:27;;;;;;;5.43;4.20;;;;;;;16.73;90.67;94792.31;5033392;28;20194;-61
2022/09/08 02:33:53;;;;;;;3.97;3.67;;;;;;;16.55;92.52;94771.16;5033020;28;20260;-61
2022/09/08 02:36:19;;;;;;;4.80;3.92;;;;;;;16.47;93.62;94759.13;5033221;28;20198;-62
2022/09/08 02:38:53;;;;;;;6.07;4.07;;;;;;;16.60;92.84;94767.13;5015272;28;20291;-62
2022/09/08 02:41:19;;;;;;;3.63;3.33;;;;;;;16.56;93.12;94755.59;5032973;28;20193;-62
2022/09/08 02:43:45;;;;;;;6.97;4.10;;;;;;;16.54;92.38;94761.88;5032992;28;20284;-61
2022/09/08 02:46:11;;;;;;;6.97;4.07;;;;;;;16.52;92.28;94768.94;5015589;28;20692;-62
2022/09/08 02:48:36;;;;;;;4.80;3.58;;;;;;;16.40;92.48;94759.94;5032813;28;20656;-62
2022/09/08 02:51:05;;;;;;;4.32;3.92;;;;;;;16.32;93.71;94744.56;5033021;28;20186;-62
2022/09/08 02:53:31;;;;;;;6.25;4.05;;;;;;;16.46;92.10;94765.19;5032855;28;20917;-62
2022/09/08 02:55:58;;;;;;;6.07;3.88;;;;;;;16.27;92.61;94757.03;5015390;28;20278;-62
2022/09/08 02:58:24;;;;;;;4.95;3.95;;;;;;;16.30;91.67;94767.00;5015247;28;20217;-60
2022/09/08 03:00:50;;;;;;;7.05;3.58;;;;;;;16.21;92.74;94753.38;5015138;28;20182;-61
2022/09/08 03:03:23;;;;;;;4.07;3.60;;;;;;;16.29;92.37;94761.06;5032642;28;20201;-61
2022/09/08 03:05:49;;;;;;;4.25;3.85;;;;;;;16.22;93.31;94746.47;5014819;28;20204;-61
2022/09/08 03:08:15;;;;;;;4.32;3.67;;;;;;;16.13;93.06;94760.25;5014992;28;20296;-61
2022/09/08 03:10:41;;;;;;;6.72;3.80;;;;;;;16.05;93.58;94748.25;5032738;28;20277;-61
2022/09/08 03:13:06;;;;;;;6.43;3.75;;;;;;;16.13;93.41;94761.06;5014804;28;20281;-62
2022/09/08 03:15:32;;;;;;;4.57;3.55;;;;;;;16.09;94.38;94741.03;5032206;28;20639;-61
2022/09/08 03:17:58;;;;;;;4.00;3.60;;;;;;;16.15;93.10;94761.72;5032822;28;20190;-62
2022/09/08 03:20:25;;;;;;;3.83;3.33;;;;;;;16.21;92.85;94761.06;5032372;28;20198;-61
2022/09/08 03:22:51;;;;;;;7.72;5.20;;;;;;;16.14;94.09;94744.69;5014726;28;20582;-62
2022/09/08 03:25:17;;;;;;;4.53;3.78;;;;;;;16.11;92.76;94768.13;5032297;28;20214;-61
2022/09/08 03:27:43;;;;;;;3.92;3.10;;;;;;;16.20;90.98;94802.28;5014853;28;20206;-61
2022/09/08 03:30:11;;;;;;;5.22;3.65;;;;;;;16.14;92.71;94772.13;5032547;28;20209;-62
2022/09/08 03:32:39;;;;;;;10.07;6.70;;;;;;;16.16;90.41;94806.13;5032591;28;20277;-63
2022/09/08 03:35:07;;;;;;;4.65;3.80;;;;;;;16.14;91.02;94800.34;5032194;28;20222;-61
2022/09/08 03:37:34;;;;;;;5.00;3.45;;;;;;;16.06;91.34;94795.22;5032084;28;20213;-63
2022/09/08 03:40:00;;;;;;;4.13;3.65;;;;;;;16.17;91.56;94788.00;5032101;28;20202;-63
2022/09/08 03:42:25;;;;;;;3.65;3.35;;;;;;;16.10;90.19;94804.97;5032423;28;20197;-60
2022/09/08 03:44:51;;;;;;;4.22;3.58;;;;;;;16.03;89.48;94816.03;5014237;28;20660;-62
2022/09/08 03:47:16;;;;;;;6.78;4.10;;;;;;;16.04;91.76;94787.66;5014383;28;20672;-62
2022/09/08 03:49:42;;;;;;;4.60;3.30;;;;;;;16.20;90.46;94804.84;5032331;28;20194;-60
2022/09/08 03:52:08;;;;;;;10.60;4.00;;;;;;;16.30;88.96;94836.28;5032244;28;20201;-60
2022/09/08 03:54:49;;;;;;;3.58;3.28;;;;;;;16.23;89.57;94819.91;5014587;28;20206;-62
2022/09/08 03:57:17;;;;;;;7.45;4.60;;;;;;;15.96;94.43;94744.06;5032331;28;20248;-62
2022/09/08 03:59:43;;;;;;;6.25;3.78;;;;;;;16.15;93.64;94763.47;5014021;28;20202;-61
2022/09/08 04:02:09;;;;;;;6.95;4.38;;;;;;;16.19;93.75;94768.13;5032066;28;20194;-62
2022/09/08 04:04:35;;;;;;;4.78;4.28;;;;;;;16.19;93.39;94763.00;5031619;28;20213;-62
2022/09/08 04:07:01;;;;;;;5.95;3.70;;;;;;;16.40;92.70;94776.09;5031857;28;20183;-62
2022/09/08 04:09:27;;;;;;;4.40;4.00;;;;;;;16.19;93.50;94769.88;5013809;28;20221;-62
2022/09/08 04:11:52;;;;;;;5.25;4.28;;;;;;;16.14;94.33;94764.44;5031780;28;20710;-63
2022/09/08 04:14:18;;;;;;;4.18;3.78;;;;;;;16.14;92.66;94783.19;5031749;28;20206;-65
2022/09/08 04:16:43;;;;;;;4.50;3.75;;;;;;;16.02;94.38;94763.94;5013821;28;20194;-62
2022/09/08 04:19:10;;;;;;;4.20;3.75;;;;;;;15.98;94.31;94780.59;5031743;28;20210;-63
2022/09/08 04:21:36;;;;;;;6.03;3.72;;;;;;;16.09;93.85;94782.88;5031771;28;20269;-62
2022/09/08 04:24:01;;;;;;;6.93;3.92;;;;;;;16.07;93.61;94789.94;5031491;28;20351;-62
2022/09/08 04:26:27;;;;;;;6.85;5.22;;;;;;;16.20;92.56;94804.84;5013065;28;20656;-63
2022/09/08 04:28:53;;;;;;;5.43;3.67;;;;;;;16.35;90.99;94826.31;5031069;28;20221;-61
2022/09/08 04:31:20;;;;;;;6.10;4.05;;;;;;;16.22;92.07;94790.88;5031441;28;20204;-62
2022/09/08 04:33:46;;;;;;;7.82;4.47;;;;;;;16.19;93.51;94780.94;5013500;28;20220;-62
2022/09/08 04:36:15;;;;;;;8.20;5.80;;;;;;;16.36;92.81;94799.72;5031451;28;20272;-62
2022/09/08 04:38:41;;;;;;;9.25;6.60;;;;;;;16.37;92.83;94789.28;5031451;28;20293;-64
2022/09/08 04:41:12;;;;;;;8.02;5.60;;;;;;;16.32;93.74;94775.34;5013571;28;20197;-62
2022/09/08 04:43:38;;;;;;;10.43;7.07;;;;;;;16.24;94.36;94760.72;5013503;28;20209;-64
2022/09/08 04:46:07;;;;;;;9.13;6.10;;;;;;;16.18;95.14;94745.97;5031215;28;20281;-63
2022/09/08 04:48:34;;;;;;;11.02;5.30;;;;;;;16.30;95.83;94747.25;5030970;28;20224;-63
2022/09/08 04:51:00;;;;;;;11.50;6.72;;;;;;;16.34;96.11;94747.75;5031048;28;20182;-63
2022/09/08 04:53:26;;;;;;;7.45;6.10;;;;;;;16.34;96.96;94745.19;5031078;28;20182;-63
2022/09/08 04:55:52;;;;;;;7.63;5.93;;;;;;;16.35;95.94;94755.28;5013416;28;20628;-63
2022/09/08 04:58:18;;;;;;;10.30;5.57;;;;;;;16.35;96.56;94760.41;5030985;28;20185;-62
2022/09/08 05:00:44;;;;;;;11.40;5.95;;;;;;;16.32;97.24;94750.47;5030780;28;20576;-63
2022/09/08 05:03:10;;;;;;;9.93;6.05;;;;;;;16.33;98.20;94744.38;5030999;28;20190;-61
2022/09/08 05:05:36;;;;;;;7.80;6.00;;;;;;;16.20;99.63;94741.50;5013248;28;20589;-60
2022/09/08 05:08:02;;;;;;;8.65;6.70;;;;;;;16.27;99.49;94747.59;5031015;28;20221;-61
2022/09/08 05:10:28;;;;;;;6.97;5.68;;;;;;;16.34;99.04;94748.53;5030776;28;20202;-61
2022/09/08 05:12:54;;;;;;;12.23;7.05;;;;;;;16.43;98.52;94760.41;5031033;28;20217;-60
2022/09/08 05:15:20;;;;;;;11.85;6.38;;;;;;;16.44;98.87;94763.78;5030953;28;20681;-61
2022/09/08 05:17:46;;;;;;;12.38;7.60;;;;;;;16.27;99.95;94759.63;5030949;28;20186;-63
2022/09/08 05:20:12;;;;;;;8.68;6.80;;;;;;;16.11;100.00;94750.16;5013396;28;20249;-64
2022/09/08 05:22:38;;;;;;;14.15;8.70;;;;;;;16.23;100.00;94774.53;5031089;28;20226;-62
2022/09/08 05:25:04;;;;;;;11.95;8.38;;;;;;;16.13;100.00;94765.41;5012978;28;20210;-64
2022/09/08 05:27:30;;;;;;;14.98;9.13;;;;;;;16.14;100.00;94772.13;5031056;28;20190;-60
2022/09/08 05:29:56;;;;;;;15.23;8.63;;;;;;;16.10;100.00;94787.03;5030490;28;20202;-60
2022/09/08 05:32:21;;;;;;;11.68;7.65;;;;;;;16.11;100.00;94788.66;5013080;28;20209;-64
2022/09/08 05:34:47;;;;;;;11.07;7.78;;;;;;;16.20;100.00;94797.16;5030548;28;20210;-60
2022/09/08 05:37:12;;;;;;;11.07;7.93;;;;;;;16.28;100.00;94803.06;5031732;28;20620;-63
2022/09/08 05:39:38;;;;;;;13.55;8.02;;;;;;;16.23;100.00;94800.19;5033978;28;20288;-62
2022/09/08 05:42:05;;;;;;;11.70;7.93;;;;;;;16.42;98.81;94812.69;5033944;28;20256;-61
2022/09/08 05:44:30;;;;;;;10.70;6.78;;;;;;;16.59;98.22;94816.06;5034000;28;20233;-63
2022/09/08 05:46:56;;;;;;;13.80;7.38;;;;;;;16.57;96.97;94830.84;5016380;28;20194;-64
2022/09/08 05:49:21;;;;;;;11.55;6.78;;;;;;;16.57;97.30;94821.38;5016229;28;20222;-61
2022/09/08 05:51:49;;;;;;;10.52;7.32;;;;;;;16.76;96.22;94826.19;5034002;28;20186;-62
2022/09/08 05:54:15;;;;;;;11.18;7.18;;;;;;;16.81;95.23;94846.22;5033584;28;20217;-62
2022/09/08 05:56:40;;;;;;;11.25;7.75;;;;;;;16.82;94.82;94852.16;5033867;28;20217;-63
2022/09/08 05:59:06;;;;;;;11.05;6.95;;;;;;;16.84;94.99;94839.94;5015847;28;20294;-62
2022/09/08 06:01:33;;;;;;;15.20;7.75;;;;;;;17.00;94.37;94848.44;5033893;28;20194;-61
2022/09/08 06:04:01;;;;;;;10.02;6.45;;;;;;;17.40;92.43;94876.59;5033563;28;20224;-62
2022/09/08 06:06:29;;;;;;;11.82;6.88;;;;;;;17.43;92.18;94876.25;5033389;28;20659;-62
2022/09/08 06:08:59;;;;;;;12.75;6.68;;;;;;;17.48;91.23;94888.59;5033342;28;20279;-62
2022/09/08 06:11:25;;;;;;;9.45;6.57;;;;;;;17.72;90.19;94906.53;5033691;28;20628;-63
2022/09/08 06:13:51;;;;;;;12.70;7.32;;;;;;;17.65;89.58;94905.63;5033307;28;20757;-63
2022/09/08 06:16:17;;;;;;;11.43;7.68;;;;;;;17.69;88.75;94926.66;5015956;28;20284;-63
2022/09/08 06:18:44;;;;;;;11.95;6.53;;;;;;;17.61;88.35;94924.91;5033434;28;20285;-62
2022/09/08 06:21:12;;;;;;;11.60;6.97;;;;;;;17.62;88.10;94921.38;5033434;28;20652;-60
2022/09/08 06:23:38;;;;;;;12.68;6.88;;;;;;;17.72;87.17;94934.84;5033610;28;20210;-62
2022/09/08 06:26:21;;;;;;;10.52;6.03;;;;;;;17.73;86.87;94944.16;5033147;28;20675;-62
2022/09/08 06:29:13;;;;;;;10.20;6.82;;;;;;;17.63;87.23;94929.88;5015744;28;20282;-62
2022/09/08 06:31:48;;;;;;;9.20;6.57;;;;;;;17.75;86.97;94926.81;5033534;28;20190;-61
2022/09/08 06:34:19;;;;;;;12.70;6.97;;;;;;;17.77;85.90;94950.59;5033267;28;20284;-63
2022/09/08 06:36:50;;;;;;;20.42;6.63;;;;;;;17.93;86.18;94939.41;5015329;28;20186;-62
2022/09/08 06:39:23;;;;;;;11.10;6.72;;;;;;;17.91;85.18;94944.75;5015438;28;20221;-63
2022/09/08 06:41:57;;;;;;;9.02;6.05;;;;;;;17.97;84.83;94958.69;5033279;28;20277;-62
2022/09/08 06:44:28;;;;;;;13.75;6.38;;;;;;;18.00;83.84;94966.06;5032966;28;20289;-61
2022/09/08 06:46:56;;;;;;;14.05;6.10;;;;;;;18.04;83.85;94973.28;5033091;28;20289;-62
2022/09/08 06:49:26;;;;;;;9.95;5.70;;;;;;;18.06;82.87;94991.94;5014485;28;20210;-62
2022/09/08 06:52:12;;;;;;;15.55;5.95;;;;;;;18.13;82.98;94990.31;5015430;28;20190;-62
2022/09/08 06:54:41;;;;;;;12.38;9.32;;;;;;;18.38;82.57;95009.81;5032979;28;20741;-60
2022/09/08 06:58:20;;;;;;;7.38;6.22;;;;;;;18.48;81.51;95014.00;5033177;28;20597;-62
2022/09/08 07:00:56;;;;;;;7.20;5.82;;;;;;;18.67;79.75;95041.88;4897255;29;20198;-63
2022/09/08 07:03:49;;;;;;;11.25;5.60;;;;;;;18.81;78.05;95084.97;4917575;29;20197;-62
2022/09/08 07:06:17;;;;;;;8.07;5.50;;;;;;;18.77;77.83;95078.53;4993085;28;20742;-60
2022/09/08 07:08:49;;;;;;;10.90;5.55;;;;;;;18.60;77.61;95080.41;5032457;28;20218;-59
2022/09/08 07:11:23;;;;;;;8.38;5.93;;;;;;;18.70;77.32;95082.78;5032643;28;20201;-63
2022/09/08 07:14:10;;;;;;;8.00;5.05;;;;;;;19.03;76.01;95100.47;5032585;28;20221;-63
2022/09/08 07:16:58;;;;;;;8.07;5.13;;;;;;;19.29;75.22;95113.00;5032840;28;20267;-63
2022/09/08 07:19:33;;;;;;;9.27;5.20;;;;;;;19.49;75.94;95091.00;5032472;28;20210;-62
2022/09/08 07:22:17;;;;;;;9.63;5.65;;;;;;;19.60;75.76;95085.41;5033008;28;20577;-61
2022/09/08 07:24:45;;;;;;;8.85;5.00;;;;;;;19.61;72.55;95145.56;5032323;28;20232;-60
2022/09/08 07:27:13;;;;;;;10.05;5.20;;;;;;;19.77;72.49;95143.66;5032628;28;20190;-61
2022/09/08 07:29:42;;;;;;;13.52;4.80;;;;;;;19.96;71.86;95139.78;5014510;28;20226;-60
2022/09/08 07:32:15;;;;;;;9.18;4.55;;;;;;;20.16;69.94;95177.03;5032442;28;20197;-61
2022/09/08 07:34:49;;;;;;;10.68;5.07;;;;;;;20.49;71.37;95141.38;5032395;28;20206;-62
2022/09/08 07:37:29;;;;;;;9.27;5.00;;;;;;;20.71;67.96;95205.09;5014468;28;20193;-62
2022/09/08 07:40:15;;;;;;;6.53;4.97;;;;;;;20.51;68.29;95196.25;5014295;28;20229;-60
2022/09/08 07:42:40;;;;;;;10.85;5.63;;;;;;;20.70;68.02;95195.75;5032484;28;20186;-61
2022/09/08 07:45:10;;;;;;;6.55;4.40;;;;;;;20.99;67.70;95203.47;5039618;22;20704;-61
2022/09/08 07:47:51;;;;;;;7.35;4.88;;;;;;;21.07;65.93;95225.91;5014167;28;20675;-62
2022/09/08 07:50:53;;;;;;;6.72;4.95;;;;;;;21.26;64.99;95233.09;5032013;28;20308;-62
2022/09/08 07:53:50;;;;;;;10.05;4.88;;;;;;;21.39;63.84;95251.38;5031778;28;20206;-62
2022/09/08 07:56:15;;;;;;;7.55;4.75;;;;;;;21.65;63.27;95244.69;5031988;28;20178;-63
2022/09/08 07:58:45;;;;;;;5.10;4.35;;;;;;;21.81;63.64;95227.31;5032214;28;20248;-62
2022/09/08 08:01:31;;;;;;;8.20;5.10;;;;;;;22.13;62.61;95239.81;5030682;28;20182;-62
2022/09/08 08:04:34;;;;;;;6.03;4.72;;;;;;;21.95;61.01;95260.16;5032006;28;20301;-62
2022/09/08 08:07:05;;;;;;;6.72;4.63;;;;;;;21.94;61.63;95243.03;5031807;28;20186;-60
2022/09/08 08:09:34;;;;;;;6.63;4.53;;;;;;;22.09;61.56;95241.16;5014423;28;20732;-62
2022/09/08 08:12:31;;;;;;;7.68;4.50;;;;;;;22.06;62.09;95213.06;5031773;28;20240;-63
2022/09/08 08:15:24;;;;;;;15.27;4.75;;;;;;;22.07;61.94;95225.00;4999380;28;20218;-62
2022/09/08 08:18:17;;;;;;;8.40;4.30;;;;;;;22.31;61.51;95228.03;5031820;28;20280;-61
2022/09/08 08:20:53;;;;;;;9.00;3.92;;;;;;;22.74;62.12;95210.59;5031418;28;20194;-61
2022/09/08 08:23:46;;;;;;;6.85;4.38;;;;;;;23.20;58.98;95293.88;5031722;28;20197;-61
2022/09/08 08:26:39;;;;;;;9.77;4.13;;;;;;;23.12;58.54;95302.63;5031809;28;20200;-64
2022/09/08 08:29:16;;;;;;;3.78;3.35;;;;;;;23.13;57.98;95299.00;5031636;28;20228;-64
2022/09/08 08:32:00;;;;;;;5.00;3.78;;;;;;;23.00;59.01;95265.22;5031594;28;20209;-62
2022/09/08 08:34:39;;;;;;;7.15;3.63;;;;;;;23.08;60.05;95233.13;5031260;28;20221;-63
2022/09/08 08:37:06;;;;;;;7.65;4.15;;;;;;;23.38;58.50;95264.84;5013685;28;20249;-62
2022/09/08 08:39:35;;;;;;;5.63;3.80;;;;;;;23.32;55.42;95345.06;5031690;28;20209;-60
2022/09/08 08:42:29;;;;;;;7.00;4.43;;;;;;;23.19;55.53;95313.03;5031166;28;20194;-62
2022/09/08 08:45:11;;;;;;;5.65;4.22;;;;;;;23.56;58.17;95226.97;5013895;28;20245;-61
2022/09/08 08:47:54;;;;;;;4.72;3.60;;;;;;;24.03;55.43;95297.06;5031045;28;20182;-62
2022/09/08 08:50:26;;;;;;;6.55;4.13;;;;;;;24.48;57.74;95233.13;5030965;28;20233;-62
2022/09/08 08:53:06;;;;;;;15.18;4.57;;;;;;;24.32;54.61;95305.50;5031071;28;20665;-60
2022/09/08 08:55:51;;;;;;;4.95;3.78;;;;;;;24.20;55.18;95294.09;5031150;28;20206;-63
2022/09/08 08:58:26;;;;;;;5.82;3.88;;;;;;;24.08;53.89;95296.47;5031122;28;20198;-60
2022/09/08 09:01:24;;;;;;;6.30;3.88;;;;;;;24.63;52.12;95340.34;5030976;28;20177;-62
2022/09/08 09:03:49;;;;;;;4.85;4.35;;;;;;;24.98;52.93;95302.75;5000649;28;20222;-62
2022/09/08 09:06:21;;;;;;;9.20;4.50;;;;;;;25.01;51.84;95331.97;5031012;28;20232;-62
2022/09/08 09:09:05;;;;;;;10.38;5.00;;;;;;;25.75;50.51;95361.88;5031266;28;20570;-62
2022/09/08 09:11:51;;;;;;;4.95;3.72;;;;;;;25.95;47.92;95313.09;5013267;28;20244;-63
2022/09/08 09:14:38;;;;;;;5.78;3.97;;;;;;;26.02;49.58;95211.41;5019654;28;20205;-63
2022/09/08 09:17:32;;;;;;;6.75;4.80;;;;;;;26.30;48.46;95217.06;5037384;28;20569;-64
2022/09/08 09:20:15;;;;;;;9.05;3.83;;;;;;;26.75;45.64;95259.41;5037377;28;20223;-63
2022/09/08 09:23:11;;;;;;;4.80;4.32;;;;;;;26.88;46.08;95222.78;5019251;28;20178;-63
2022/09/08 09:26:02;;;;;;;4.82;4.35;;;;;;;26.86;47.29;95170.00;5037334;28;20664;-62
2022/09/08 09:28:54;;;;;;;6.05;4.15;;;;;;;27.10;45.07;95213.50;5036931;28;20256;-62
2022/09/08 09:31:47;;;;;;;9.85;4.00;;;;;;;27.20;47.31;95141.47;5037328;28;20248;-63
2022/09/08 09:37:05;;;;;;;8.38;4.15;;;;;;;27.86;44.31;95191.06;5044801;22;20248;-63
2022/09/08 09:39:42;;;;;;;7.45;4.28;;;;;;;28.13;45.38;95160.91;5037262;28;20672;-61
2022/09/08 09:42:38;;;;;;;6.18;4.07;;;;;;;27.58;43.73;95175.16;5037408;28;20186;-63
2022/09/08 09:45:19;;;;;;;8.85;4.15;;;;;;;27.59;44.66;95149.84;5036979;28;20627;-62
2022/09/08 09:48:17;;;;;;;5.25;4.35;;;;;;;27.98;42.82;95186.69;5020291;28;20655;-63
2022/09/08 09:50:48;;;;;;;6.28;3.92;;;;;;;27.54;42.48;95170.59;5037251;28;20205;-62
2022/09/08 09:53:24;;;;;;;5.82;3.95;;;;;;;28.18;43.13;95147.94;5037114;28;20691;-61
2022/09/08 09:56:19;;;;;;;6.13;4.63;;;;;;;28.65;43.50;95147.97;5037396;28;20790;-62
2022/09/08 09:58:51;;;;;;;9.20;4.45;;;;;;;28.73;42.72;95156.28;5036745;28;20220;-60
2022/09/08 10:01:44;;;;;;;7.15;4.25;;;;;;;28.57;41.21;95169.25;5018972;28;20707;-61
2022/09/08 10:04:51;;;;;;;6.20;4.43;;;;;;;28.77;41.04;95162.66;5036637;28;20277;-63
2022/09/08 10:07:22;;;;;;;8.18;4.75;;;;;;;28.77;40.72;95162.66;4997801;28;20201;-62
2022/09/08 10:10:21;;;;;;;7.97;4.28;;;;;;;28.73;41.22;95129.28;5036713;28;20214;-62
2022/09/08 10:13:24;;;;;;;7.40;4.25;;;;;;;29.28;41.79;95117.34;5036820;28;20224;-64
2022/09/08 10:16:21;;;;;;;11.82;4.47;;;;;;;29.06;39.84;95176.63;5037186;28;20190;-61
2022/09/08 10:19:01;;;;;;;6.05;4.35;;;;;;;29.28;40.02;95156.66;5036449;28;20281;-63
2022/09/08 10:21:27;;;;;;;8.57;4.43;;;;;;;29.53;40.42;95125.66;5018861;28;20186;-63
2022/09/08 10:24:11;;;;;;;5.68;4.10;;;;;;;29.86;39.90;95139.91;5016517;28;20210;-63
2022/09/08 10:26:58;;;;;;;6.30;4.60;;;;;;;29.84;39.03;95148.00;5033442;28;20264;-64
2022/09/08 10:29:44;;;;;;;6.60;4.20;;;;;;;30.03;40.22;95115.28;5033250;28;20635;-62
2022/09/08 10:32:31;;;;;;;4.95;4.15;;;;;;;30.55;40.69;95097.41;5033404;28;20583;-63
2022/09/08 10:35:21;;;;;;;4.78;4.07;;;;;;;30.88;40.48;95097.34;5041020;22;20671;-62
2022/09/08 10:38:13;;;;;;;6.32;3.85;;;;;;;30.31;38.85;95132.78;5033225;28;20236;-63
2022/09/08 10:41:09;;;;;;;4.70;4.18;;;;;;;30.32;37.79;95148.28;5013747;28;20203;-63
2022/09/08 10:43:37;;;;;;;9.57;4.13;;;;;;;29.72;38.93;95102.69;5013669;28;20214;-60
2022/09/08 10:46:21;;;;;;;6.38;4.10;;;;;;;30.18;38.98;95102.38;5013599;28;20742;-61
2022/09/08 10:49:20;;;;;;;4.22;3.92;;;;;;;30.76;39.12;95099.28;5024167;22;20218;-60
2022/09/08 10:52:06;;;;;;;4.72;3.70;;;;;;;30.79;38.14;95124.25;5015206;28;20202;-62
2022/09/08 10:54:44;;;;;;;4.72;3.92;;;;;;;31.06;38.60;95099.69;5033086;28;20206;-62
2022/09/08 10:57:48;;;;;;;5.75;4.00;;;;;;;30.97;37.58;95139.75;5033191;28;20691;-64
2022/09/08 11:00:19;;;;;;;4.25;3.50;;;;;;;31.04;37.63;95111.47;5032685;28;20773;-62
2022/09/08 11:03:22;;;;;;;5.97;4.18;;;;;;;31.55;37.96;95097.84;5033084;28;20194;-62
2022/09/08 11:05:49;;;;;;;7.70;3.60;;;;;;;31.65;35.43;95168.16;5032922;28;20269;-63
2022/09/08 11:08:37;;;;;;;9.60;4.15;;;;;;;31.59;37.13;95111.28;5032785;28;20216;-61
2022/09/08 11:11:52;;;;;;;5.03;3.83;;;;;;;31.45;37.12;95105.66;5033064;28;20266;-63
2022/09/08 11:14:52;;;;;;;10.70;3.92;;;;;;;31.60;36.07;95124.19;5009969;28;20229;-62
2022/09/08 11:17:25;;;;;;;4.57;3.78;;;;;;;32.13;35.46;95133.91;5032708;28;20227;-63
2022/09/08 11:20:01;;;;;;;5.93;3.75;;;;;;;32.36;35.43;95128.28;5014978;28;20621;-62
2022/09/08 11:23:02;;;;;;;6.15;4.45;;;;;;;32.47;35.46;95116.78;5022598;22;20221;-63
2022/09/08 11:25:52;;;;;;;6.72;4.47;;;;;;;32.46;35.85;95109.94;5032477;28;20248;-63
2022/09/08 11:28:36;;;;;;;6.05;4.45;;;;;;;32.71;35.78;95099.53;5032444;28;20205;-63
2022/09/08 11:31:13;;;;;;;6.65;4.22;;;;;;;32.69;35.21;95111.38;5032801;28;20643;-64
2022/09/08 11:34:00;;;;;;;6.32;4.50;;;;;;;32.64;35.40;95112.16;5032510;28;20206;-64
2022/09/08 11:36:37;;;;;;;6.18;4.00;;;;;;;31.53;37.03;95057.88;5014674;28;20690;-63
2022/09/08 11:39:15;;;;;;;5.15;3.83;;;;;;;30.83;37.46;95036.03;5032446;28;20209;-64
2022/09/08 11:42:02;;;;;;;4.45;4.03;;;;;;;30.76;37.58;95036.25;5032247;28;20224;-62
2022/09/08 11:44:43;;;;;;;7.20;4.20;;;;;;;30.58;37.73;95041.81;5039712;22;20612;-61
2022/09/08 11:47:36;;;;;;;5.55;3.78;;;;;;;30.70;37.53;95039.06;5032426;28;20198;-63
2022/09/08 11:50:07;;;;;;;7.10;4.30;;;;;;;30.47;37.59;95030.38;5014462;28;20651;-61
2022/09/08 11:52:33;;;;;;;6.97;4.07;;;;;;;30.33;38.49;95021.28;5032269;28;20190;-62
2022/09/08 11:54:58;;;;;;;9.52;3.85;;;;;;;30.51;38.97;95001.81;5032255;28;20206;-63
2022/09/08 11:57:35;;;;;;;5.50;4.22;;;;;;;30.53;38.82;95005.78;5032215;28;20269;-63
2022/09/08 12:00:38;;;;;;;5.88;4.43;;;;;;;30.39;38.88;95007.19;5032248;28;20762;-62
2022/09/08 12:03:22;;;;;;;4.97;4.30;;;;;;;30.73;38.57;95005.22;5032186;28;20197;-61
2022/09/08 12:05:53;;;;;;;5.82;3.92;;;;;;;31.29;38.84;95004.00;5031929;28;20277;-62
2022/09/08 12:09:07;;;;;;;8.52;4.38;;;;;;;32.15;36.64;95058.91;5031799;28;20217;-61
2022/09/08 12:11:48;;;;;;;7.40;4.13;;;;;;;32.11;37.05;95060.47;5031767;28;20240;-61